sensor_id;sensor_type;location;lat;lon;timestamp;P1;durP1;ratioP1;P2;durP2;ratioP2
20776;SDS011;10548;47.504;8.248;2024-01-15T00:01:34;27.03;;;13.10;;
20776;SDS011;10548;47.504;8.248;2024-01-15T00:04:01;27.33;;;13.83;;
20776;SDS011;10548;47.504;8.248;2024-01-15T00:06:29;26.93;;;13.20;;
20776;SDS011;10548;47.504;8.248;2024-01-15T00:08:59;26.43;;;14.57;;
20776;SDS011;10548;47.504;8.248;2024-01-15T00:11:26;27.87;;;13.30;;
20776;SDS011;10548;47.504;8.248;2024-01-15T00:13:53;27.60;;;13.77;;
20776;SDS011;10548;47.504;8.248;2024-01-15T00:16:21;30.80;;;14.33;;
20776;SDS011;10548;47.504;8.248;2024-01-15T00:18:48;31.70;;;14.23;;
20776;SDS011;10548;47.504;8.248;2024-01-15T00:21:16;27.10;;;13.77;;
20776;SDS011;10548;47.504;8.248;2024-01-15T00:23:43;28.43;;;14.60;;
20776;SDS011;10548;47.504;8.248;2024-01-15T00:26:13;27.87;;;14.23;;
20776;SDS011;10548;47.504;8.248;2024-01-15T00:28:40;25.30;;;13.70;;
20776;SDS011;10548;47.504;8.248;2024-01-15T00:31:08;29.53;;;13.57;;
20776;SDS011;10548;47.504;8.248;2024-01-15T00:33:36;28.57;;;14.20;;
20776;SDS011;10548;47.504;8.248;2024-01-15T00:36:03;32.37;;;14.60;;
20776;SDS011;10548;47.504;8.248;2024-01-15T00:38:31;28.30;;;14.40;;
20776;SDS011;10548;47.504;8.248;2024-01-15T00:40:58;26.53;;;14.60;;
20776;SDS011;10548;47.504;8.248;2024-01-15T00:43:26;29.93;;;15.67;;
20776;SDS011;10548;47.504;8.248;2024-01-15T00:45:53;30.10;;;15.37;;
20776;SDS011;10548;47.504;8.248;2024-01-15T00:48:20;32.87;;;16.17;;
20776;SDS011;10548;47.504;8.248;2024-01-15T00:50:48;38.23;;;19.20;;
20776;SDS011;10548;47.504;8.248;2024-01-15T00:53:15;40.23;;;19.67;;
20776;SDS011;10548;47.504;8.248;2024-01-15T00:55:43;40.17;;;18.77;;
20776;SDS011;10548;47.504;8.248;2024-01-15T00:58:10;46.77;;;19.93;;
20776;SDS011;10548;47.504;8.248;2024-01-15T01:00:37;44.47;;;20.07;;
20776;SDS011;10548;47.504;8.248;2024-01-15T01:03:05;47.80;;;20.57;;
20776;SDS011;10548;47.504;8.248;2024-01-15T01:05:35;44.87;;;20.70;;
20776;SDS011;10548;47.504;8.248;2024-01-15T01:08:03;49.73;;;20.10;;
20776;SDS011;10548;47.504;8.248;2024-01-15T01:10:30;49.30;;;21.17;;
20776;SDS011;10548;47.504;8.248;2024-01-15T01:12:57;53.43;;;22.93;;
20776;SDS011;10548;47.504;8.248;2024-01-15T01:15:25;49.17;;;22.07;;
20776;SDS011;10548;47.504;8.248;2024-01-15T01:17:52;51.60;;;23.23;;
20776;SDS011;10548;47.504;8.248;2024-01-15T01:20:19;47.23;;;19.93;;
20776;SDS011;10548;47.504;8.248;2024-01-15T01:22:47;55.50;;;24.60;;
20776;SDS011;10548;47.504;8.248;2024-01-15T01:25:14;53.23;;;22.23;;
20776;SDS011;10548;47.504;8.248;2024-01-15T01:27:42;53.53;;;23.67;;
20776;SDS011;10548;47.504;8.248;2024-01-15T01:30:09;60.97;;;24.90;;
20776;SDS011;10548;47.504;8.248;2024-01-15T01:32:37;63.03;;;24.70;;
20776;SDS011;10548;47.504;8.248;2024-01-15T01:35:04;61.53;;;23.97;;
20776;SDS011;10548;47.504;8.248;2024-01-15T01:37:32;59.17;;;26.33;;
20776;SDS011;10548;47.504;8.248;2024-01-15T01:40:00;58.60;;;26.10;;
20776;SDS011;10548;47.504;8.248;2024-01-15T01:42:28;60.70;;;24.73;;
20776;SDS011;10548;47.504;8.248;2024-01-15T01:44:55;54.13;;;24.70;;
20776;SDS011;10548;47.504;8.248;2024-01-15T01:47:23;56.23;;;25.20;;
20776;SDS011;10548;47.504;8.248;2024-01-15T01:49:53;59.57;;;24.67;;
20776;SDS011;10548;47.504;8.248;2024-01-15T01:52:21;61.77;;;25.73;;
20776;SDS011;10548;47.504;8.248;2024-01-15T01:54:49;59.03;;;24.63;;
20776;SDS011;10548;47.504;8.248;2024-01-15T01:57:17;55.90;;;23.83;;
20776;SDS011;10548;47.504;8.248;2024-01-15T01:59:45;55.17;;;24.47;;
20776;SDS011;10548;47.504;8.248;2024-01-15T02:02:13;61.60;;;26.30;;
20776;SDS011;10548;47.504;8.248;2024-01-15T02:04:41;63.83;;;25.10;;
20776;SDS011;10548;47.504;8.248;2024-01-15T02:07:08;62.00;;;26.03;;
20776;SDS011;10548;47.504;8.248;2024-01-15T02:09:36;61.93;;;26.27;;
20776;SDS011;10548;47.504;8.248;2024-01-15T02:12:04;58.13;;;25.20;;
20776;SDS011;10548;47.504;8.248;2024-01-15T02:14:32;61.20;;;24.33;;
20776;SDS011;10548;47.504;8.248;2024-01-15T02:17:00;66.13;;;27.00;;
20776;SDS011;10548;47.504;8.248;2024-01-15T02:19:27;60.07;;;26.17;;
20776;SDS011;10548;47.504;8.248;2024-01-15T02:21:55;64.87;;;25.37;;
20776;SDS011;10548;47.504;8.248;2024-01-15T02:24:22;61.57;;;25.70;;
20776;SDS011;10548;47.504;8.248;2024-01-15T02:26:50;64.47;;;27.63;;
20776;SDS011;10548;47.504;8.248;2024-01-15T02:29:17;63.70;;;27.47;;
20776;SDS011;10548;47.504;8.248;2024-01-15T02:31:45;64.13;;;26.60;;
20776;SDS011;10548;47.504;8.248;2024-01-15T02:34:12;63.30;;;26.67;;
20776;SDS011;10548;47.504;8.248;2024-01-15T02:36:40;66.53;;;27.63;;
20776;SDS011;10548;47.504;8.248;2024-01-15T02:39:07;64.67;;;26.83;;
20776;SDS011;10548;47.504;8.248;2024-01-15T02:41:35;61.30;;;25.07;;
20776;SDS011;10548;47.504;8.248;2024-01-15T02:44:02;66.87;;;27.20;;
20776;SDS011;10548;47.504;8.248;2024-01-15T02:46:30;47.37;;;20.80;;
20776;SDS011;10548;47.504;8.248;2024-01-15T02:48:57;50.47;;;21.17;;
20776;SDS011;10548;47.504;8.248;2024-01-15T02:51:25;48.27;;;20.37;;
20776;SDS011;10548;47.504;8.248;2024-01-15T02:53:52;51.20;;;20.70;;
20776;SDS011;10548;47.504;8.248;2024-01-15T02:56:20;51.10;;;21.23;;
20776;SDS011;10548;47.504;8.248;2024-01-15T02:58:47;47.10;;;21.23;;
20776;SDS011;10548;47.504;8.248;2024-01-15T03:01:14;52.97;;;21.63;;
20776;SDS011;10548;47.504;8.248;2024-01-15T03:03:42;50.37;;;21.47;;
20776;SDS011;10548;47.504;8.248;2024-01-15T03:06:09;51.70;;;21.43;;
20776;SDS011;10548;47.504;8.248;2024-01-15T03:08:37;50.00;;;21.83;;
20776;SDS011;10548;47.504;8.248;2024-01-15T03:11:04;49.30;;;19.50;;
20776;SDS011;10548;47.504;8.248;2024-01-15T03:13:35;46.47;;;20.33;;
20776;SDS011;10548;47.504;8.248;2024-01-15T03:16:03;51.10;;;19.50;;
20776;SDS011;10548;47.504;8.248;2024-01-15T03:18:32;50.70;;;20.13;;
20776;SDS011;10548;47.504;8.248;2024-01-15T03:20:59;44.53;;;18.07;;
20776;SDS011;10548;47.504;8.248;2024-01-15T03:23:28;50.50;;;20.93;;
20776;SDS011;10548;47.504;8.248;2024-01-15T03:25:55;53.53;;;22.17;;
20776;SDS011;10548;47.504;8.248;2024-01-15T03:28:22;52.30;;;22.97;;
20776;SDS011;10548;47.504;8.248;2024-01-15T03:30:49;52.47;;;20.77;;
20776;SDS011;10548;47.504;8.248;2024-01-15T03:33:17;46.70;;;19.07;;
20776;SDS011;10548;47.504;8.248;2024-01-15T03:35:44;52.97;;;22.27;;
20776;SDS011;10548;47.504;8.248;2024-01-15T03:38:12;44.67;;;21.30;;
20776;SDS011;10548;47.504;8.248;2024-01-15T03:40:39;56.67;;;22.60;;
20776;SDS011;10548;47.504;8.248;2024-01-15T03:43:07;52.33;;;21.90;;
20776;SDS011;10548;47.504;8.248;2024-01-15T03:45:34;50.77;;;21.23;;
20776;SDS011;10548;47.504;8.248;2024-01-15T03:48:01;47.93;;;21.37;;
20776;SDS011;10548;47.504;8.248;2024-01-15T03:50:29;56.03;;;21.23;;
20776;SDS011;10548;47.504;8.248;2024-01-15T03:52:56;49.00;;;21.63;;
20776;SDS011;10548;47.504;8.248;2024-01-15T03:55:23;54.13;;;23.00;;
20776;SDS011;10548;47.504;8.248;2024-01-15T03:57:51;52.23;;;21.90;;
20776;SDS011;10548;47.504;8.248;2024-01-15T04:00:18;58.77;;;23.30;;
20776;SDS011;10548;47.504;8.248;2024-01-15T04:02:46;53.57;;;23.77;;
20776;SDS011;10548;47.504;8.248;2024-01-15T04:05:13;54.27;;;23.03;;
20776;SDS011;10548;47.504;8.248;2024-01-15T04:07:40;54.43;;;21.73;;
20776;SDS011;10548;47.504;8.248;2024-01-15T04:10:08;54.57;;;22.83;;
20776;SDS011;10548;47.504;8.248;2024-01-15T04:12:35;51.17;;;21.93;;
20776;SDS011;10548;47.504;8.248;2024-01-15T04:15:03;53.63;;;22.53;;
20776;SDS011;10548;47.504;8.248;2024-01-15T04:17:30;57.57;;;23.40;;
20776;SDS011;10548;47.504;8.248;2024-01-15T04:19:58;54.20;;;22.30;;
20776;SDS011;10548;47.504;8.248;2024-01-15T04:22:26;54.60;;;22.97;;
20776;SDS011;10548;47.504;8.248;2024-01-15T04:24:54;52.73;;;23.43;;
20776;SDS011;10548;47.504;8.248;2024-01-15T04:27:21;46.70;;;20.87;;
20776;SDS011;10548;47.504;8.248;2024-01-15T04:29:48;46.87;;;19.40;;
20776;SDS011;10548;47.504;8.248;2024-01-15T04:32:16;38.70;;;17.10;;
20776;SDS011;10548;47.504;8.248;2024-01-15T04:34:43;43.20;;;18.60;;
20776;SDS011;10548;47.504;8.248;2024-01-15T04:37:11;44.43;;;19.00;;
20776;SDS011;10548;47.504;8.248;2024-01-15T04:39:38;43.03;;;19.03;;
20776;SDS011;10548;47.504;8.248;2024-01-15T04:42:05;40.10;;;17.30;;
20776;SDS011;10548;47.504;8.248;2024-01-15T04:44:33;40.37;;;17.53;;
20776;SDS011;10548;47.504;8.248;2024-01-15T04:47:00;44.67;;;19.00;;
20776;SDS011;10548;47.504;8.248;2024-01-15T04:49:27;41.50;;;18.93;;
20776;SDS011;10548;47.504;8.248;2024-01-15T04:51:56;42.40;;;18.73;;
20776;SDS011;10548;47.504;8.248;2024-01-15T04:54:23;48.43;;;20.17;;
20776;SDS011;10548;47.504;8.248;2024-01-15T04:56:51;41.53;;;17.90;;
20776;SDS011;10548;47.504;8.248;2024-01-15T04:59:18;41.63;;;19.47;;
20776;SDS011;10548;47.504;8.248;2024-01-15T05:01:46;42.90;;;18.27;;
20776;SDS011;10548;47.504;8.248;2024-01-15T05:04:15;43.90;;;19.03;;
20776;SDS011;10548;47.504;8.248;2024-01-15T05:06:43;44.43;;;18.93;;
20776;SDS011;10548;47.504;8.248;2024-01-15T05:09:10;46.50;;;19.00;;
20776;SDS011;10548;47.504;8.248;2024-01-15T05:11:37;44.30;;;18.73;;
20776;SDS011;10548;47.504;8.248;2024-01-15T05:14:05;44.73;;;18.67;;
20776;SDS011;10548;47.504;8.248;2024-01-15T05:16:32;44.57;;;19.07;;
20776;SDS011;10548;47.504;8.248;2024-01-15T05:19:00;47.60;;;20.47;;
20776;SDS011;10548;47.504;8.248;2024-01-15T05:21:28;47.67;;;20.53;;
20776;SDS011;10548;47.504;8.248;2024-01-15T05:23:55;42.97;;;17.20;;
20776;SDS011;10548;47.504;8.248;2024-01-15T05:26:23;46.70;;;20.27;;
20776;SDS011;10548;47.504;8.248;2024-01-15T05:28:50;45.10;;;19.37;;
20776;SDS011;10548;47.504;8.248;2024-01-15T05:31:17;43.63;;;18.53;;
20776;SDS011;10548;47.504;8.248;2024-01-15T05:33:45;42.83;;;19.13;;
20776;SDS011;10548;47.504;8.248;2024-01-15T05:36:13;44.17;;;19.10;;
20776;SDS011;10548;47.504;8.248;2024-01-15T05:38:40;41.67;;;17.17;;
20776;SDS011;10548;47.504;8.248;2024-01-15T05:41:08;41.57;;;19.23;;
20776;SDS011;10548;47.504;8.248;2024-01-15T05:43:36;40.07;;;18.73;;
20776;SDS011;10548;47.504;8.248;2024-01-15T05:46:03;44.37;;;17.93;;
20776;SDS011;10548;47.504;8.248;2024-01-15T05:48:30;46.23;;;19.20;;
20776;SDS011;10548;47.504;8.248;2024-01-15T05:50:58;41.00;;;17.73;;
20776;SDS011;10548;47.504;8.248;2024-01-15T05:53:25;42.97;;;16.93;;
20776;SDS011;10548;47.504;8.248;2024-01-15T05:55:53;39.10;;;17.47;;
20776;SDS011;10548;47.504;8.248;2024-01-15T05:58:22;41.90;;;17.53;;
20776;SDS011;10548;47.504;8.248;2024-01-15T06:00:49;39.13;;;17.03;;
20776;SDS011;10548;47.504;8.248;2024-01-15T06:03:17;38.40;;;16.73;;
20776;SDS011;10548;47.504;8.248;2024-01-15T06:05:44;35.63;;;15.83;;
20776;SDS011;10548;47.504;8.248;2024-01-15T06:08:12;39.63;;;17.03;;
20776;SDS011;10548;47.504;8.248;2024-01-15T06:10:41;38.57;;;16.00;;
20776;SDS011;10548;47.504;8.248;2024-01-15T06:13:08;39.00;;;16.90;;
20776;SDS011;10548;47.504;8.248;2024-01-15T06:15:35;39.17;;;16.07;;
20776;SDS011;10548;47.504;8.248;2024-01-15T06:18:03;39.23;;;16.40;;
20776;SDS011;10548;47.504;8.248;2024-01-15T06:20:31;39.13;;;17.00;;
20776;SDS011;10548;47.504;8.248;2024-01-15T06:22:58;38.40;;;17.03;;
20776;SDS011;10548;47.504;8.248;2024-01-15T06:25:26;34.90;;;16.87;;
20776;SDS011;10548;47.504;8.248;2024-01-15T06:27:53;39.10;;;16.67;;
20776;SDS011;10548;47.504;8.248;2024-01-15T06:30:20;37.57;;;16.20;;
20776;SDS011;10548;47.504;8.248;2024-01-15T06:32:48;34.27;;;15.10;;
20776;SDS011;10548;47.504;8.248;2024-01-15T06:35:15;44.93;;;16.50;;
20776;SDS011;10548;47.504;8.248;2024-01-15T06:37:46;32.87;;;15.23;;
20776;SDS011;10548;47.504;8.248;2024-01-15T06:40:13;36.47;;;16.87;;
20776;SDS011;10548;47.504;8.248;2024-01-15T06:42:41;35.87;;;16.37;;
20776;SDS011;10548;47.504;8.248;2024-01-15T06:45:08;36.73;;;16.23;;
20776;SDS011;10548;47.504;8.248;2024-01-15T06:47:36;38.57;;;16.80;;
20776;SDS011;10548;47.504;8.248;2024-01-15T06:50:03;37.97;;;17.37;;
20776;SDS011;10548;47.504;8.248;2024-01-15T06:52:33;40.17;;;17.93;;
20776;SDS011;10548;47.504;8.248;2024-01-15T06:55:01;37.33;;;17.00;;
20776;SDS011;10548;47.504;8.248;2024-01-15T06:57:28;40.73;;;18.37;;
20776;SDS011;10548;47.504;8.248;2024-01-15T06:59:55;36.87;;;16.17;;
20776;SDS011;10548;47.504;8.248;2024-01-15T07:02:23;36.30;;;16.37;;
20776;SDS011;10548;47.504;8.248;2024-01-15T07:04:50;34.33;;;15.17;;
20776;SDS011;10548;47.504;8.248;2024-01-15T07:07:17;32.07;;;13.87;;
20776;SDS011;10548;47.504;8.248;2024-01-15T07:09:45;28.10;;;12.27;;
20776;SDS011;10548;47.504;8.248;2024-01-15T07:12:12;25.93;;;12.03;;
20776;SDS011;10548;47.504;8.248;2024-01-15T07:14:39;25.17;;;11.60;;
20776;SDS011;10548;47.504;8.248;2024-01-15T07:17:06;27.57;;;11.07;;
20776;SDS011;10548;47.504;8.248;2024-01-15T07:19:34;27.27;;;13.13;;
20776;SDS011;10548;47.504;8.248;2024-01-15T07:22:02;26.30;;;12.57;;
20776;SDS011;10548;47.504;8.248;2024-01-15T07:24:29;24.37;;;11.00;;
20776;SDS011;10548;47.504;8.248;2024-01-15T07:26:57;28.40;;;12.10;;
20776;SDS011;10548;47.504;8.248;2024-01-15T07:29:24;24.67;;;11.67;;
20776;SDS011;10548;47.504;8.248;2024-01-15T07:31:51;24.73;;;10.90;;
20776;SDS011;10548;47.504;8.248;2024-01-15T07:34:20;21.87;;;10.23;;
20776;SDS011;10548;47.504;8.248;2024-01-15T07:36:48;23.93;;;11.67;;
20776;SDS011;10548;47.504;8.248;2024-01-15T07:39:16;24.33;;;10.50;;
20776;SDS011;10548;47.504;8.248;2024-01-15T07:41:43;20.17;;;9.87;;
20776;SDS011;10548;47.504;8.248;2024-01-15T07:44:11;20.57;;;10.10;;
20776;SDS011;10548;47.504;8.248;2024-01-15T07:46:38;19.83;;;9.23;;
20776;SDS011;10548;47.504;8.248;2024-01-15T07:49:06;20.67;;;9.10;;
20776;SDS011;10548;47.504;8.248;2024-01-15T07:51:33;21.63;;;8.70;;
20776;SDS011;10548;47.504;8.248;2024-01-15T07:54:01;21.23;;;9.47;;
20776;SDS011;10548;47.504;8.248;2024-01-15T07:56:29;18.77;;;9.30;;
20776;SDS011;10548;47.504;8.248;2024-01-15T07:58:57;21.23;;;8.30;;
20776;SDS011;10548;47.504;8.248;2024-01-15T08:01:25;17.90;;;8.00;;
20776;SDS011;10548;47.504;8.248;2024-01-15T08:03:52;15.53;;;7.00;;
20776;SDS011;10548;47.504;8.248;2024-01-15T08:06:22;20.17;;;8.47;;
20776;SDS011;10548;47.504;8.248;2024-01-15T08:08:50;17.40;;;8.47;;
20776;SDS011;10548;47.504;8.248;2024-01-15T08:11:17;21.83;;;9.20;;
20776;SDS011;10548;47.504;8.248;2024-01-15T08:13:44;24.00;;;11.27;;
20776;SDS011;10548;47.504;8.248;2024-01-15T08:16:11;20.60;;;9.90;;
20776;SDS011;10548;47.504;8.248;2024-01-15T08:18:40;21.83;;;9.63;;
20776;SDS011;10548;47.504;8.248;2024-01-15T08:21:09;20.80;;;9.87;;
20776;SDS011;10548;47.504;8.248;2024-01-15T08:23:37;26.03;;;10.63;;
20776;SDS011;10548;47.504;8.248;2024-01-15T08:26:05;21.97;;;10.33;;
20776;SDS011;10548;47.504;8.248;2024-01-15T08:28:32;21.07;;;9.20;;
20776;SDS011;10548;47.504;8.248;2024-01-15T08:31:01;17.90;;;9.23;;
20776;SDS011;10548;47.504;8.248;2024-01-15T08:33:29;20.30;;;9.67;;
20776;SDS011;10548;47.504;8.248;2024-01-15T08:35:57;19.67;;;9.80;;
20776;SDS011;10548;47.504;8.248;2024-01-15T08:38:24;20.80;;;9.67;;
20776;SDS011;10548;47.504;8.248;2024-01-15T08:40:52;17.23;;;8.63;;
20776;SDS011;10548;47.504;8.248;2024-01-15T08:43:20;17.33;;;8.03;;
20776;SDS011;10548;47.504;8.248;2024-01-15T08:45:47;21.90;;;8.73;;
20776;SDS011;10548;47.504;8.248;2024-01-15T08:48:15;21.47;;;9.33;;
20776;SDS011;10548;47.504;8.248;2024-01-15T08:50:42;16.80;;;8.63;;
20776;SDS011;10548;47.504;8.248;2024-01-15T08:53:12;18.63;;;7.73;;
20776;SDS011;10548;47.504;8.248;2024-01-15T08:55:40;17.17;;;8.40;;
20776;SDS011;10548;47.504;8.248;2024-01-15T08:58:11;15.33;;;7.83;;
20776;SDS011;10548;47.504;8.248;2024-01-15T09:00:38;15.23;;;7.73;;
20776;SDS011;10548;47.504;8.248;2024-01-15T09:03:05;17.07;;;7.30;;
20776;SDS011;10548;47.504;8.248;2024-01-15T09:05:35;17.50;;;8.07;;
20776;SDS011;10548;47.504;8.248;2024-01-15T09:08:02;16.53;;;7.93;;
20776;SDS011;10548;47.504;8.248;2024-01-15T09:10:30;14.37;;;7.10;;
20776;SDS011;10548;47.504;8.248;2024-01-15T09:12:57;18.47;;;8.93;;
20776;SDS011;10548;47.504;8.248;2024-01-15T09:15:25;15.10;;;7.00;;
20776;SDS011;10548;47.504;8.248;2024-01-15T09:17:52;17.07;;;7.57;;
20776;SDS011;10548;47.504;8.248;2024-01-15T09:20:19;22.77;;;11.13;;
20776;SDS011;10548;47.504;8.248;2024-01-15T09:22:47;16.70;;;7.17;;
20776;SDS011;10548;47.504;8.248;2024-01-15T09:25:14;12.93;;;7.10;;
20776;SDS011;10548;47.504;8.248;2024-01-15T09:27:41;13.77;;;7.47;;
20776;SDS011;10548;47.504;8.248;2024-01-15T09:30:09;21.10;;;7.40;;
20776;SDS011;10548;47.504;8.248;2024-01-15T09:32:38;18.17;;;7.93;;
20776;SDS011;10548;47.504;8.248;2024-01-15T09:35:05;16.50;;;7.83;;
20776;SDS011;10548;47.504;8.248;2024-01-15T09:37:33;18.43;;;8.50;;
20776;SDS011;10548;47.504;8.248;2024-01-15T09:40:12;20.27;;;8.77;;
20776;SDS011;10548;47.504;8.248;2024-01-15T09:42:44;18.93;;;9.33;;
20776;SDS011;10548;47.504;8.248;2024-01-15T09:45:13;19.50;;;9.03;;
20776;SDS011;10548;47.504;8.248;2024-01-15T09:47:41;20.43;;;9.53;;
20776;SDS011;10548;47.504;8.248;2024-01-15T09:50:12;26.33;;;11.53;;
20776;SDS011;10548;47.504;8.248;2024-01-15T09:52:43;21.63;;;9.47;;
20776;SDS011;10548;47.504;8.248;2024-01-15T09:55:11;21.60;;;11.13;;
20776;SDS011;10548;47.504;8.248;2024-01-15T09:57:39;23.27;;;10.77;;
20776;SDS011;10548;47.504;8.248;2024-01-15T10:00:07;27.50;;;12.10;;
20776;SDS011;10548;47.504;8.248;2024-01-15T10:02:38;23.73;;;11.37;;
20776;SDS011;10548;47.504;8.248;2024-01-15T10:05:05;25.30;;;11.23;;
20776;SDS011;10548;47.504;8.248;2024-01-15T10:07:34;22.80;;;11.23;;
20776;SDS011;10548;47.504;8.248;2024-01-15T10:10:02;25.07;;;10.90;;
20776;SDS011;10548;47.504;8.248;2024-01-15T10:12:30;22.83;;;10.77;;
20776;SDS011;10548;47.504;8.248;2024-01-15T10:14:58;27.73;;;12.30;;
20776;SDS011;10548;47.504;8.248;2024-01-15T10:17:25;22.17;;;10.53;;
20776;SDS011;10548;47.504;8.248;2024-01-15T10:19:55;23.43;;;10.20;;
20776;SDS011;10548;47.504;8.248;2024-01-15T10:22:22;17.27;;;8.10;;
20776;SDS011;10548;47.504;8.248;2024-01-15T10:24:51;15.27;;;8.07;;
20776;SDS011;10548;47.504;8.248;2024-01-15T10:27:18;17.20;;;8.30;;
20776;SDS011;10548;47.504;8.248;2024-01-15T10:29:45;14.50;;;7.47;;
20776;SDS011;10548;47.504;8.248;2024-01-15T10:32:13;16.00;;;7.40;;
20776;SDS011;10548;47.504;8.248;2024-01-15T10:34:40;14.13;;;7.80;;
20776;SDS011;10548;47.504;8.248;2024-01-15T10:37:09;16.77;;;7.70;;
20776;SDS011;10548;47.504;8.248;2024-01-15T10:39:37;15.43;;;7.90;;
20776;SDS011;10548;47.504;8.248;2024-01-15T10:42:05;15.13;;;8.13;;
20776;SDS011;10548;47.504;8.248;2024-01-15T10:44:33;17.50;;;8.20;;
20776;SDS011;10548;47.504;8.248;2024-01-15T10:47:02;17.50;;;8.47;;
20776;SDS011;10548;47.504;8.248;2024-01-15T10:49:30;21.33;;;9.10;;
20776;SDS011;10548;47.504;8.248;2024-01-15T10:52:03;16.53;;;7.93;;
20776;SDS011;10548;47.504;8.248;2024-01-15T10:54:30;14.30;;;7.90;;
20776;SDS011;10548;47.504;8.248;2024-01-15T10:56:59;20.77;;;8.10;;
20776;SDS011;10548;47.504;8.248;2024-01-15T10:59:27;19.37;;;7.97;;
20776;SDS011;10548;47.504;8.248;2024-01-15T11:01:54;14.40;;;7.20;;
20776;SDS011;10548;47.504;8.248;2024-01-15T11:04:23;14.57;;;7.50;;
20776;SDS011;10548;47.504;8.248;2024-01-15T11:06:55;15.17;;;7.70;;
20776;SDS011;10548;47.504;8.248;2024-01-15T11:09:23;17.40;;;9.37;;
20776;SDS011;10548;47.504;8.248;2024-01-15T11:11:52;12.97;;;7.13;;
20776;SDS011;10548;47.504;8.248;2024-01-15T11:14:33;12.10;;;6.73;;
20776;SDS011;10548;47.504;8.248;2024-01-15T11:17:02;13.63;;;6.80;;
20776;SDS011;10548;47.504;8.248;2024-01-15T11:19:45;13.67;;;5.97;;
20776;SDS011;10548;47.504;8.248;2024-01-15T11:25:20;12.23;;;5.57;;
20776;SDS011;10548;47.504;8.248;2024-01-15T11:27:48;10.90;;;5.03;;
20776;SDS011;10548;47.504;8.248;2024-01-15T11:30:20;11.00;;;5.17;;
20776;SDS011;10548;47.504;8.248;2024-01-15T11:32:52;8.20;;;4.07;;
20776;SDS011;10548;47.504;8.248;2024-01-15T11:35:20;8.63;;;4.90;;
20776;SDS011;10548;47.504;8.248;2024-01-15T11:40:37;12.87;;;4.03;;
20776;SDS011;10548;47.504;8.248;2024-01-15T11:43:06;9.73;;;4.97;;
20776;SDS011;10548;47.504;8.248;2024-01-15T11:45:33;8.60;;;5.13;;
20776;SDS011;10548;47.504;8.248;2024-01-15T11:48:14;9.70;;;5.37;;
20776;SDS011;10548;47.504;8.248;2024-01-15T11:50:45;8.67;;;4.37;;
20776;SDS011;10548;47.504;8.248;2024-01-15T11:53:28;10.13;;;4.20;;
20776;SDS011;10548;47.504;8.248;2024-01-15T11:56:03;6.37;;;3.70;;
20776;SDS011;10548;47.504;8.248;2024-01-15T11:58:38;7.70;;;3.73;;
20776;SDS011;10548;47.504;8.248;2024-01-15T12:01:05;6.70;;;3.27;;
20776;SDS011;10548;47.504;8.248;2024-01-15T12:03:33;5.97;;;4.00;;
20776;SDS011;10548;47.504;8.248;2024-01-15T12:06:01;6.83;;;4.10;;
20776;SDS011;10548;47.504;8.248;2024-01-15T12:08:28;7.87;;;4.60;;
20776;SDS011;10548;47.504;8.248;2024-01-15T12:10:56;4.93;;;3.33;;
20776;SDS011;10548;47.504;8.248;2024-01-15T12:13:23;4.53;;;3.13;;
20776;SDS011;10548;47.504;8.248;2024-01-15T12:15:51;7.10;;;3.40;;
20776;SDS011;10548;47.504;8.248;2024-01-15T12:18:18;8.83;;;4.27;;
20776;SDS011;10548;47.504;8.248;2024-01-15T12:20:47;11.90;;;7.67;;
20776;SDS011;10548;47.504;8.248;2024-01-15T12:23:14;13.00;;;7.03;;
20776;SDS011;10548;47.504;8.248;2024-01-15T12:25:43;11.90;;;6.43;;
20776;SDS011;10548;47.504;8.248;2024-01-15T12:28:11;13.93;;;7.53;;
20776;SDS011;10548;47.504;8.248;2024-01-15T12:30:39;13.33;;;7.47;;
20776;SDS011;10548;47.504;8.248;2024-01-15T12:33:07;17.13;;;8.97;;
20776;SDS011;10548;47.504;8.248;2024-01-15T12:35:36;21.33;;;11.10;;
20776;SDS011;10548;47.504;8.248;2024-01-15T12:38:04;23.17;;;11.50;;
20776;SDS011;10548;47.504;8.248;2024-01-15T12:40:33;21.33;;;11.73;;
20776;SDS011;10548;47.504;8.248;2024-01-15T12:43:05;23.03;;;11.60;;
20776;SDS011;10548;47.504;8.248;2024-01-15T12:45:34;24.93;;;11.87;;
20776;SDS011;10548;47.504;8.248;2024-01-15T12:48:03;24.87;;;12.53;;
20776;SDS011;10548;47.504;8.248;2024-01-15T12:50:31;24.10;;;13.20;;
20776;SDS011;10548;47.504;8.248;2024-01-15T12:53:01;28.90;;;14.17;;
20776;SDS011;10548;47.504;8.248;2024-01-15T12:55:29;31.27;;;13.50;;
20776;SDS011;10548;47.504;8.248;2024-01-15T12:57:56;28.30;;;14.47;;
20776;SDS011;10548;47.504;8.248;2024-01-15T13:00:24;29.50;;;15.40;;
20776;SDS011;10548;47.504;8.248;2024-01-15T13:02:53;33.63;;;16.43;;
20776;SDS011;10548;47.504;8.248;2024-01-15T13:05:22;35.83;;;17.73;;
20776;SDS011;10548;47.504;8.248;2024-01-15T13:07:50;36.97;;;16.83;;
20776;SDS011;10548;47.504;8.248;2024-01-15T13:10:18;32.90;;;16.03;;
20776;SDS011;10548;47.504;8.248;2024-01-15T13:12:45;32.20;;;17.30;;
20776;SDS011;10548;47.504;8.248;2024-01-15T13:15:13;36.43;;;17.83;;
20776;SDS011;10548;47.504;8.248;2024-01-15T13:17:41;34.83;;;16.30;;
20776;SDS011;10548;47.504;8.248;2024-01-15T13:20:10;33.30;;;17.00;;
20776;SDS011;10548;47.504;8.248;2024-01-15T13:22:39;33.53;;;15.93;;
20776;SDS011;10548;47.504;8.248;2024-01-15T13:25:11;33.03;;;17.00;;
20776;SDS011;10548;47.504;8.248;2024-01-15T13:27:39;30.23;;;16.40;;
20776;SDS011;10548;47.504;8.248;2024-01-15T13:30:08;34.10;;;16.20;;
20776;SDS011;10548;47.504;8.248;2024-01-15T13:32:37;29.47;;;14.77;;
20776;SDS011;10548;47.504;8.248;2024-01-15T13:35:05;32.27;;;16.93;;
20776;SDS011;10548;47.504;8.248;2024-01-15T13:37:36;27.97;;;13.73;;
20776;SDS011;10548;47.504;8.248;2024-01-15T13:40:05;35.40;;;16.57;;
20776;SDS011;10548;47.504;8.248;2024-01-15T13:42:35;30.17;;;15.50;;
20776;SDS011;10548;47.504;8.248;2024-01-15T13:45:06;28.83;;;14.87;;
20776;SDS011;10548;47.504;8.248;2024-01-15T13:47:34;24.77;;;13.00;;
20776;SDS011;10548;47.504;8.248;2024-01-15T13:50:02;24.40;;;13.47;;
20776;SDS011;10548;47.504;8.248;2024-01-15T13:52:30;26.73;;;13.73;;
20776;SDS011;10548;47.504;8.248;2024-01-15T13:54:58;26.37;;;13.63;;
20776;SDS011;10548;47.504;8.248;2024-01-15T13:57:26;27.83;;;14.97;;
20776;SDS011;10548;47.504;8.248;2024-01-15T13:59:53;25.27;;;13.90;;
20776;SDS011;10548;47.504;8.248;2024-01-15T14:02:21;26.43;;;15.27;;
20776;SDS011;10548;47.504;8.248;2024-01-15T14:04:51;26.17;;;15.37;;
20776;SDS011;10548;47.504;8.248;2024-01-15T14:07:19;25.03;;;15.03;;
20776;SDS011;10548;47.504;8.248;2024-01-15T14:09:46;25.07;;;14.47;;
20776;SDS011;10548;47.504;8.248;2024-01-15T14:12:14;28.80;;;15.37;;
20776;SDS011;10548;47.504;8.248;2024-01-15T14:14:42;27.93;;;13.77;;
20776;SDS011;10548;47.504;8.248;2024-01-15T14:17:09;24.17;;;14.67;;
20776;SDS011;10548;47.504;8.248;2024-01-15T14:19:37;23.07;;;13.67;;
20776;SDS011;10548;47.504;8.248;2024-01-15T14:22:05;24.53;;;13.83;;
20776;SDS011;10548;47.504;8.248;2024-01-15T14:24:33;25.93;;;14.33;;
20776;SDS011;10548;47.504;8.248;2024-01-15T14:27:01;24.83;;;14.60;;
20776;SDS011;10548;47.504;8.248;2024-01-15T14:29:28;23.57;;;11.83;;
20776;SDS011;10548;47.504;8.248;2024-01-15T14:31:56;23.57;;;11.83;;
20776;SDS011;10548;47.504;8.248;2024-01-15T14:34:25;22.70;;;11.73;;
20776;SDS011;10548;47.504;8.248;2024-01-15T14:36:53;23.20;;;11.17;;